Alamo, North Dakota
Current Conditions -  °F | °C
As of 5:55 PM on Wednesday 26 Nov 2014 (Local Time) from KD50 Reporting Station
Clear Clear  
Wind Chill: -9°   Ceiling: Unl
Heat Index: -9°   Visibility: 10mi
Dew Point: -13°   Wind: 0mph
Humidity: 84%   Direction: NA
Pressure: 30.41"   Gusts: NA
Location:  48.58°N, 103.47°W
Report Text: KD50 262355Z AUTO 00000KT 10SM CLR M23/M25 A3041 RMK AO2
Loading
Personal Weather Stations






























Interactive Weather Map New forecast layout! Learn more

10-Day Weather Forecast

Advertisements
Track Severe Weather on mobile